createdAt,value
2022-07-28T00:02:21.077Z,97681.66
2022-07-28T00:04:48.095Z,97677.25
2022-07-28T00:07:14.887Z,97669.31
2022-07-28T00:09:41.525Z,97677.03
2022-07-28T00:12:08.694Z,97673.91
2022-07-28T00:14:35.642Z,97678.00
2022-07-28T00:17:02.592Z,97679.56
2022-07-28T00:19:29.263Z,97668.72
2022-07-28T00:21:55.909Z,97679.28
2022-07-28T00:24:24.212Z,97674.47
2022-07-28T00:26:50.839Z,97674.34
2022-07-28T00:29:17.681Z,97674.31
2022-07-28T00:31:44.409Z,97673.97
2022-07-28T00:34:12.361Z,97673.97
2022-07-28T00:36:39.425Z,97670.75
2022-07-28T00:39:06.448Z,97673.78
2022-07-28T00:41:33.427Z,97668.63
2022-07-28T00:44:00.091Z,97664.66
2022-07-28T00:46:27.127Z,97670.75
2022-07-28T00:48:55.268Z,97669.00
2022-07-28T00:51:25.588Z,97662.75
2022-07-28T00:53:53.022Z,97681.97
2022-07-28T00:56:20.576Z,97673.69
2022-07-28T00:58:48.248Z,97679.69
2022-07-28T01:01:17.852Z,97668.66
2022-07-28T01:03:48.155Z,97665.88
2022-07-28T01:06:36.672Z,97661.78
2022-07-28T01:09:42.273Z,97661.44
2022-07-28T01:12:41.075Z,97665.78
2022-07-28T01:15:25.526Z,97663.25
2022-07-28T01:18:16.980Z,97660.50
2022-07-28T01:21:20.899Z,97661.94
2022-07-28T01:24:16.810Z,97652.47
2022-07-28T01:27:05.980Z,97656.19
2022-07-28T01:30:11.031Z,97648.28
2022-07-28T01:32:46.184Z,97649.72
2022-07-28T01:35:41.651Z,97653.53
2022-07-28T01:38:11.651Z,97656.44
2022-07-28T01:40:40.760Z,97659.06
2022-07-28T01:43:13.355Z,97653.31
2022-07-28T01:45:42.634Z,97652.25
2022-07-28T01:48:11.339Z,97641.66
2022-07-28T01:50:40.716Z,97642.59
2022-07-28T01:53:12.006Z,97636.97
2022-07-28T01:55:39.695Z,97640.00
2022-07-28T01:58:07.741Z,97640.56
2022-07-28T02:00:35.476Z,97635.41
2022-07-28T02:03:06.046Z,97632.53
2022-07-28T02:05:35.305Z,97628.56
2022-07-28T02:08:05.356Z,97632.88
2022-07-28T02:10:33.343Z,97631.72
2022-07-28T02:13:01.876Z,97629.53
2022-07-28T02:15:31.417Z,97633.38
2022-07-28T02:17:59.725Z,97630.25
2022-07-28T02:20:26.523Z,97624.25
2022-07-28T02:22:54.105Z,97619.22
2022-07-28T02:25:21.810Z,97612.97
2022-07-28T02:27:57.200Z,97611.41
2022-07-28T02:30:38.354Z,97613.22
2022-07-28T02:33:14.913Z,97603.88
2022-07-28T02:36:10.157Z,97597.28
2022-07-28T02:38:51.012Z,97600.66
2022-07-28T02:41:27.360Z,97599.22
2022-07-28T02:43:58.170Z,97600.66
2022-07-28T02:46:29.201Z,97601.97
2022-07-28T02:49:03.369Z,97606.66
2022-07-28T02:51:33.252Z,97612.78
2022-07-28T02:54:01.220Z,97609.28
2022-07-28T02:56:30.279Z,97610.88
2022-07-28T02:58:58.626Z,97608.09
2022-07-28T03:01:25.838Z,97611.94
2022-07-28T03:03:55.362Z,97618.91
2022-07-28T03:06:28.415Z,97624.41
2022-07-28T03:08:56.711Z,97626.56
2022-07-28T03:11:23.324Z,97624.28
2022-07-28T03:13:49.953Z,97631.25
2022-07-28T03:16:16.725Z,97623.69
2022-07-28T03:18:43.512Z,97633.75
2022-07-28T03:21:10.279Z,97624.19
2022-07-28T03:23:47.903Z,97627.19
2022-07-28T03:26:21.223Z,97635.81
2022-07-28T03:28:48.888Z,97632.44
2022-07-28T03:31:16.832Z,97634.13
2022-07-28T03:33:43.577Z,97642.53
2022-07-28T03:36:15.670Z,97638.22
2022-07-28T03:39:02.950Z,97643.34
2022-07-28T03:41:32.322Z,97651.53
2022-07-28T03:44:00.411Z,97651.25
2022-07-28T03:46:28.193Z,97647.44
2022-07-28T03:48:55.445Z,97647.44
2022-07-28T03:51:22.764Z,97644.69
2022-07-28T03:53:49.663Z,97648.03
2022-07-28T03:56:16.480Z,97651.75
2022-07-28T03:58:43.175Z,97652.97
2022-07-28T04:01:09.867Z,97656.19
2022-07-28T04:03:43.887Z,97651.28
2022-07-28T04:06:15.642Z,97646.72
2022-07-28T04:08:43.539Z,97650.69
2022-07-28T04:11:10.242Z,97651.75
2022-07-28T04:13:37.382Z,97647.81
2022-07-28T04:16:05.142Z,97647.81
2022-07-28T04:18:32.028Z,97655.13
2022-07-28T04:20:58.787Z,97650.34
2022-07-28T04:23:25.583Z,97652.59
2022-07-28T04:25:52.298Z,97654.53
2022-07-28T04:28:19.028Z,97648.53
2022-07-28T04:30:45.977Z,97645.41
2022-07-28T04:33:12.928Z,97650.19
2022-07-28T04:35:39.689Z,97648.41
2022-07-28T04:38:06.381Z,97644.31
2022-07-28T04:40:34.454Z,97643.84
2022-07-28T04:43:01.657Z,97631.00
2022-07-28T04:45:28.420Z,97640.22
2022-07-28T04:47:55.122Z,97643.47
2022-07-28T04:50:21.841Z,97631.22
2022-07-28T04:52:49.867Z,97638.81
2022-07-28T04:55:17.474Z,97640.38
2022-07-28T04:57:44.205Z,97639.75
2022-07-28T05:00:14.850Z,97646.81
2022-07-28T05:02:43.434Z,97642.50
2022-07-28T05:05:10.936Z,97641.28
2022-07-28T05:07:38.717Z,97643.00
2022-07-28T05:10:06.984Z,97644.19
2022-07-28T05:12:33.954Z,97646.81
2022-07-28T05:15:00.950Z,97639.63
2022-07-28T05:17:27.656Z,97643.00
2022-07-28T05:19:54.330Z,97647.31
2022-07-28T05:22:21.218Z,97646.47
2022-07-28T05:24:47.885Z,97643.94
2022-07-28T05:27:14.479Z,97642.25
2022-07-28T05:29:47.314Z,97646.78
2022-07-28T05:32:16.202Z,97646.44
2022-07-28T05:34:44.550Z,97647.63
2022-07-28T05:37:11.204Z,97637.53
2022-07-28T05:39:37.808Z,97643.50
2022-07-28T05:42:04.853Z,97646.81
2022-07-28T05:44:37.254Z,97643.19
2022-07-28T05:47:06.291Z,97643.28
2022-07-28T05:49:33.109Z,97643.56
2022-07-28T05:51:59.704Z,97652.31
2022-07-28T05:54:26.832Z,97654.06
2022-07-28T05:56:53.532Z,97656.47
2022-07-28T05:59:20.244Z,97655.91
2022-07-28T06:01:47.053Z,97659.72
2022-07-28T06:04:26.544Z,97660.97
2022-07-28T06:06:54.868Z,97656.88
2022-07-28T06:09:21.537Z,97655.16
2022-07-28T06:11:50.387Z,97659.66
2022-07-28T06:14:17.940Z,97662.13
2022-07-28T06:16:45.278Z,97655.38
2022-07-28T06:19:12.563Z,97653.72
2022-07-28T06:21:39.271Z,97657.63
2022-07-28T06:24:08.532Z,97641.13
2022-07-28T06:26:43.719Z,97647.81
2022-07-28T06:29:11.396Z,97648.00
2022-07-28T06:31:38.996Z,97648.22
2022-07-28T06:34:05.909Z,97644.81
2022-07-28T06:36:32.603Z,97637.72
2022-07-28T06:38:59.275Z,97643.66
2022-07-28T06:41:25.987Z,97647.03
2022-07-28T06:43:52.810Z,97642.47
2022-07-28T06:46:19.940Z,97643.63
2022-07-28T06:48:46.744Z,97638.47
2022-07-28T06:51:15.129Z,97638.44
2022-07-28T06:53:41.795Z,97637.72
2022-07-28T06:56:10.883Z,97642.59
2022-07-28T06:58:40.668Z,97642.13
2022-07-28T07:01:10.768Z,97624.41
2022-07-28T07:03:37.423Z,97625.56
2022-07-28T07:06:04.398Z,97621.38
2022-07-28T07:08:31.145Z,97625.00
2022-07-28T07:10:58.072Z,97617.88
2022-07-28T07:13:24.921Z,97616.72
2022-07-28T07:15:51.662Z,97630.78
2022-07-28T07:18:18.402Z,97627.44
2022-07-28T07:20:45.073Z,97632.38
2022-07-28T07:23:11.818Z,97627.63
2022-07-28T07:25:39.868Z,97629.69
2022-07-28T07:28:06.562Z,97623.75
2022-07-28T07:30:33.354Z,97626.63
2022-07-28T07:33:00.021Z,97623.59
2022-07-28T07:35:26.846Z,97626.38
2022-07-28T07:37:56.065Z,97626.09
2022-07-28T07:40:22.708Z,97624.22
2022-07-28T07:42:49.400Z,97615.13
2022-07-28T07:45:16.036Z,97610.84
2022-07-28T07:47:42.678Z,97602.75
2022-07-28T07:50:09.572Z,97601.66
2022-07-28T07:52:36.239Z,97606.38
2022-07-28T07:55:03.815Z,97595.41
2022-07-28T07:57:30.519Z,97603.09
2022-07-28T07:59:57.162Z,97598.06
2022-07-28T08:02:23.813Z,97592.81
2022-07-28T08:04:50.591Z,97592.97
2022-07-28T08:07:17.898Z,97595.88
2022-07-28T08:09:48.717Z,97596.75
2022-07-28T08:12:15.360Z,97588.41
2022-07-28T08:14:42.183Z,97584.53
2022-07-28T08:17:14.635Z,97597.56
2022-07-28T08:19:41.518Z,97587.00
2022-07-28T08:22:08.217Z,97589.22
2022-07-28T08:24:34.986Z,97584.69
2022-07-28T08:27:05.365Z,97583.75
2022-07-28T08:29:32.493Z,97572.09
2022-07-28T08:31:59.248Z,97579.22
2022-07-28T08:34:31.201Z,97586.00
2022-07-28T08:37:01.329Z,97586.72
2022-07-28T08:39:28.060Z,97588.59
2022-07-28T08:42:12.103Z,97582.22
2022-07-28T08:44:54.845Z,97585.84
2022-07-28T08:47:22.296Z,97581.22
2022-07-28T08:49:50.028Z,97575.91
2022-07-28T08:52:20.552Z,97584.16
2022-07-28T08:54:49.598Z,97579.34
2022-07-28T08:57:20.353Z,97576.56
2022-07-28T08:59:49.007Z,97580.03
2022-07-28T09:02:16.301Z,97571.19
2022-07-28T09:04:46.204Z,97567.06
2022-07-28T09:07:13.491Z,97562.28
2022-07-28T09:12:07.200Z,97566.69
2022-07-28T09:14:34.596Z,97564.13
2022-07-28T09:17:02.735Z,97565.13
2022-07-28T09:19:34.064Z,97554.91
2022-07-28T09:22:02.353Z,97550.03
2022-07-28T09:24:44.449Z,97552.38
2022-07-28T09:27:13.362Z,97544.22
2022-07-28T09:29:42.051Z,97551.34
2022-07-28T09:32:09.017Z,97543.91
2022-07-28T09:34:46.733Z,97544.63
2022-07-28T09:37:28.607Z,97533.28
2022-07-28T09:39:59.639Z,97543.34
2022-07-28T09:42:26.546Z,97533.88
2022-07-28T09:45:22.258Z,97538.28
2022-07-28T09:47:50.104Z,97534.78
2022-07-28T09:50:21.915Z,97534.09
2022-07-28T09:52:48.675Z,97523.09
2022-07-28T09:55:15.405Z,97516.38
2022-07-28T09:57:45.781Z,97518.06
2022-07-28T10:00:28.293Z,97514.09
2022-07-28T10:02:55.610Z,97508.22
2022-07-28T10:05:22.404Z,97512.75
2022-07-28T10:07:52.954Z,97501.63
2022-07-28T10:10:22.671Z,97504.59
2022-07-28T10:12:49.400Z,97500.94
2022-07-28T10:15:36.702Z,97497.72
2022-07-28T10:18:05.095Z,97500.78
2022-07-28T10:20:33.052Z,97496.06
2022-07-28T10:23:09.481Z,97496.06
2022-07-28T10:25:40.459Z,97497.66
2022-07-28T10:28:10.199Z,97489.28
2022-07-28T10:30:40.070Z,97490.38
2022-07-28T10:33:13.886Z,97488.47
2022-07-28T10:35:54.242Z,97483.19
2022-07-28T10:38:23.921Z,97481.59
2022-07-28T10:40:52.439Z,97476.13
2022-07-28T10:43:20.243Z,97472.00
2022-07-28T10:46:05.073Z,97469.44
2022-07-28T10:48:33.794Z,97466.03
2022-07-28T10:51:01.411Z,97471.16
2022-07-28T10:54:00.119Z,97472.63
2022-07-28T10:56:41.335Z,97466.38
2022-07-28T10:59:39.547Z,97454.88
2022-07-28T11:02:06.482Z,97449.47
2022-07-28T11:04:52.291Z,97445.59
2022-07-28T11:07:20.667Z,97448.94
2022-07-28T11:09:47.609Z,97456.63
2022-07-28T11:12:18.007Z,97449.09
2022-07-28T11:14:44.991Z,97445.69
2022-07-28T11:17:16.996Z,97456.19
2022-07-28T11:20:16.896Z,97440.19
2022-07-28T11:22:42.787Z,97447.19
2022-07-28T11:25:19.577Z,97451.94
2022-07-28T11:28:08.742Z,97438.63
2022-07-28T11:30:53.339Z,97440.78
2022-07-28T11:33:20.560Z,97434.19
2022-07-28T11:35:47.327Z,97448.25
2022-07-28T11:38:14.719Z,97437.22
2022-07-28T11:40:50.018Z,97442.22
2022-07-28T11:43:36.876Z,97438.19
2022-07-28T11:46:24.957Z,97433.31
2022-07-28T11:49:16.876Z,97438.19
2022-07-28T11:52:07.177Z,97443.09
2022-07-28T11:54:35.609Z,97438.50
2022-07-28T11:57:04.211Z,97434.16
2022-07-28T11:59:44.439Z,97444.72
2022-07-28T12:02:27.031Z,97430.22
2022-07-28T12:04:59.010Z,97422.66
2022-07-28T12:07:32.893Z,97421.97
2022-07-28T12:10:00.383Z,97424.13
2022-07-28T12:12:30.579Z,97421.97
2022-07-28T12:15:00.926Z,97422.13
2022-07-28T12:17:34.157Z,97415.84
2022-07-28T12:20:11.577Z,97417.25
2022-07-28T12:22:40.982Z,97411.78
2022-07-28T12:25:13.367Z,97413.19
2022-07-28T12:27:40.564Z,97403.50
2022-07-28T12:30:13.600Z,97395.25
2022-07-28T12:32:42.344Z,97396.63
2022-07-28T12:35:09.680Z,97404.28
2022-07-28T12:37:36.442Z,97398.03
2022-07-28T12:40:03.570Z,97405.31
2022-07-28T12:42:33.197Z,97400.38
2022-07-28T12:45:03.460Z,97400.38
2022-07-28T12:47:31.531Z,97393.44
2022-07-28T12:50:15.752Z,97389.34
2022-07-28T12:52:43.850Z,97388.69
2022-07-28T12:55:29.231Z,97392.03
2022-07-28T12:57:55.923Z,97397.72
2022-07-28T13:00:26.311Z,97388.78
2022-07-28T13:02:56.266Z,97381.81
2022-07-28T13:05:58.326Z,97381.16
2022-07-28T13:08:27.594Z,97384.66
2022-07-28T13:10:58.640Z,97393.03
2022-07-28T13:13:26.774Z,97383.97
2022-07-28T13:16:22.290Z,97381.25
2022-07-28T13:18:54.195Z,97385.56
2022-07-28T13:21:57.143Z,97377.84
2022-07-28T13:24:27.774Z,97370.25
2022-07-28T13:26:55.082Z,97380.13
2022-07-28T13:29:22.546Z,97375.84
2022-07-28T13:31:49.437Z,97371.78
2022-07-28T13:34:16.725Z,97377.38
2022-07-28T13:36:43.675Z,97360.56
2022-07-28T13:39:14.236Z,97358.41
2022-07-28T13:41:57.276Z,97357.13
2022-07-28T13:44:25.746Z,97358.47
2022-07-28T13:46:53.265Z,97364.00
2022-07-28T13:49:22.798Z,97352.88
2022-07-28T13:51:51.244Z,97352.91
2022-07-28T13:54:19.028Z,97342.47
2022-07-28T13:56:46.574Z,97335.56
2022-07-28T13:59:13.780Z,97333.53
2022-07-28T14:01:42.468Z,97339.22
2022-07-28T14:04:16.776Z,97335.06
2022-07-28T14:06:45.363Z,97335.13
2022-07-28T14:09:13.022Z,97328.91
2022-07-28T14:11:49.932Z,97327.53
2022-07-28T14:14:20.440Z,97325.59
2022-07-28T14:16:54.536Z,97327.00
2022-07-28T14:19:38.289Z,97332.38
2022-07-28T14:22:12.194Z,97329.59
2022-07-28T14:24:39.066Z,97326.91
2022-07-28T14:27:05.742Z,97321.97
2022-07-28T14:29:32.867Z,97329.09
2022-07-28T14:31:59.620Z,97317.25
2022-07-28T14:34:26.416Z,97320.84
2022-07-28T14:36:53.175Z,97336.34
2022-07-28T14:39:20.190Z,97324.59
2022-07-28T14:41:46.928Z,97318.34
2022-07-28T14:44:24.545Z,97321.81
2022-07-28T14:46:51.857Z,97323.91
2022-07-28T14:49:18.947Z,97312.56
2022-07-28T14:51:45.967Z,97320.19
2022-07-28T14:54:13.198Z,97319.47
2022-07-28T14:56:40.386Z,97322.28
2022-07-28T14:59:07.274Z,97316.72
2022-07-28T15:01:35.990Z,97317.34
2022-07-28T15:04:03.219Z,97314.50
2022-07-28T15:06:29.887Z,97308.88
2022-07-28T15:08:57.844Z,97317.25
2022-07-28T15:11:24.872Z,97311.72
2022-07-28T15:13:51.736Z,97306.78
2022-07-28T15:16:18.606Z,97309.63
2022-07-28T15:18:45.359Z,97296.22
2022-07-28T15:21:16.507Z,97292.00
2022-07-28T15:23:43.691Z,97308.84
2022-07-28T15:26:10.849Z,97302.50
2022-07-28T15:28:37.826Z,97294.78
2022-07-28T15:31:06.700Z,97294.09
2022-07-28T15:33:41.104Z,97293.28
2022-07-28T15:36:15.828Z,97289.09
2022-07-28T15:38:47.036Z,97299.66
2022-07-28T15:41:15.118Z,97288.47
2022-07-28T15:43:42.248Z,97296.19
2022-07-28T15:46:11.757Z,97285.59
2022-07-28T15:48:41.558Z,97291.84
2022-07-28T15:51:09.091Z,97284.09
2022-07-28T15:53:36.669Z,97280.63
2022-07-28T15:56:04.495Z,97284.09
2022-07-28T15:58:31.573Z,97279.84
2022-07-28T16:01:01.021Z,97271.44
2022-07-28T16:03:29.476Z,97274.22
2022-07-28T16:05:56.328Z,97276.91
2022-07-28T16:08:23.897Z,97274.13
2022-07-28T16:10:52.973Z,97274.00
2022-07-28T16:13:36.203Z,97270.44
2022-07-28T16:16:12.571Z,97263.44
2022-07-28T16:18:42.477Z,97268.31
2022-07-28T16:21:10.704Z,97257.69
2022-07-28T16:23:37.423Z,97259.03
2022-07-28T16:26:07.781Z,97264.50
2022-07-28T16:28:34.985Z,97260.25
2022-07-28T16:31:01.753Z,97251.16
2022-07-28T16:33:33.101Z,97254.59
2022-07-28T16:36:00.451Z,97247.38
2022-07-28T16:38:27.343Z,97256.47
2022-07-28T16:40:54.072Z,97257.84
2022-07-28T16:43:20.772Z,97260.69
2022-07-28T16:45:47.384Z,97249.44
2022-07-28T16:48:14.094Z,97255.63
2022-07-28T16:50:45.783Z,97258.38
2022-07-28T16:53:13.849Z,97260.38
2022-07-28T16:55:42.223Z,97262.47
2022-07-28T16:58:09.146Z,97262.28
2022-07-28T17:00:36.006Z,97256.69
2022-07-28T17:03:02.722Z,97254.50
2022-07-28T17:05:29.424Z,97252.28
2022-07-28T17:07:56.133Z,97245.31
2022-07-28T17:10:26.431Z,97247.28
2022-07-28T17:12:54.606Z,97245.78
2022-07-28T17:15:22.861Z,97248.50
2022-07-28T17:17:53.254Z,97246.31
2022-07-28T17:20:20.929Z,97254.63
2022-07-28T17:22:48.089Z,97258.03
2022-07-28T17:28:02.014Z,97260.78
2022-07-28T17:30:30.364Z,97265.53
2022-07-28T17:32:59.238Z,97269.53
2022-07-28T17:35:34.196Z,97279.22
2022-07-28T17:38:03.634Z,97281.19
2022-07-28T17:40:30.900Z,97276.84
2022-07-28T17:42:57.636Z,97276.03
2022-07-28T17:45:24.845Z,97283.66
2022-07-28T17:47:52.297Z,97284.13
2022-07-28T17:50:19.417Z,97283.19
2022-07-28T17:52:46.669Z,97287.94
2022-07-28T17:55:55.729Z,97288.56
2022-07-28T17:58:26.295Z,97283.47
2022-07-28T18:00:58.058Z,97283.56
2022-07-28T18:03:27.285Z,97289.59
2022-07-28T18:05:54.289Z,97291.09
2022-07-28T18:08:21.130Z,97300.69
2022-07-28T18:10:50.519Z,97289.44
2022-07-28T18:13:17.926Z,97301.16
2022-07-28T18:15:44.846Z,97294.81
2022-07-28T18:18:11.700Z,97299.59
2022-07-28T18:20:39.045Z,97291.13
2022-07-28T18:23:07.033Z,97300.13
2022-07-28T18:25:34.649Z,97291.06
2022-07-28T18:28:01.707Z,97295.16
2022-07-28T18:30:29.171Z,97293.03
2022-07-28T18:32:55.981Z,97290.09
2022-07-28T18:35:23.123Z,97283.00
2022-07-28T18:37:50.253Z,97289.16
2022-07-28T18:40:18.626Z,97291.13
2022-07-28T18:42:46.322Z,97291.03
2022-07-28T18:45:13.709Z,97296.50
2022-07-28T18:47:47.341Z,97298.53
2022-07-28T18:50:28.009Z,97303.94
2022-07-28T18:52:59.189Z,97308.03
2022-07-28T18:55:26.055Z,97312.13
2022-07-28T18:57:52.705Z,97308.53
2022-07-28T19:00:19.613Z,97318.94
2022-07-28T19:02:46.412Z,97319.50
2022-07-28T19:05:13.235Z,97319.50
2022-07-28T19:07:40.067Z,97327.09
2022-07-28T19:10:07.623Z,97324.88
2022-07-28T19:12:34.540Z,97333.13
2022-07-28T19:15:01.731Z,97331.66
2022-07-28T19:17:28.930Z,97334.97
2022-07-28T19:19:56.333Z,97332.09
2022-07-28T19:22:24.041Z,97339.63
2022-07-28T19:24:51.933Z,97342.34
2022-07-28T19:27:19.221Z,97338.19
2022-07-28T19:29:45.943Z,97348.53
2022-07-28T19:32:12.693Z,97343.56
2022-07-28T19:34:39.417Z,97348.34
2022-07-28T19:37:06.627Z,97349.00
2022-07-28T19:39:34.502Z,97354.53
2022-07-28T19:42:01.200Z,97347.22
2022-07-28T19:44:30.099Z,97350.59
2022-07-28T19:47:00.455Z,97352.56
2022-07-28T19:49:27.246Z,97354.56
2022-07-28T19:51:54.946Z,97354.41
2022-07-28T19:54:23.271Z,97354.34
2022-07-28T19:56:50.137Z,97355.75
2022-07-28T19:59:16.846Z,97352.91
2022-07-28T20:01:46.689Z,97352.78
2022-07-28T20:04:13.809Z,97352.09
2022-07-28T20:06:40.531Z,97356.28
2022-07-28T20:09:07.246Z,97349.91
2022-07-28T20:11:33.996Z,97346.34
2022-07-28T20:14:01.094Z,97344.91
2022-07-28T20:16:28.207Z,97347.75
2022-07-28T20:18:56.820Z,97346.25
2022-07-28T20:21:24.893Z,97347.50
2022-07-28T20:23:55.054Z,97348.09
2022-07-28T20:26:23.748Z,97340.31
2022-07-28T20:28:50.810Z,97328.38
2022-07-28T20:31:17.614Z,97343.50
2022-07-28T20:33:44.579Z,97334.97
2022-07-28T20:36:11.272Z,97340.44
2022-07-28T20:38:39.498Z,97338.41
2022-07-28T20:41:07.315Z,97337.56
2022-07-28T20:43:36.439Z,97332.47
2022-07-28T20:46:05.331Z,97334.91
2022-07-28T20:48:32.264Z,97343.03
2022-07-28T20:50:58.909Z,97340.34
2022-07-28T20:53:25.503Z,97337.41
2022-07-28T20:55:52.136Z,97334.75
2022-07-28T20:58:18.785Z,97330.63
2022-07-28T21:00:45.518Z,97334.75
2022-07-28T21:03:12.239Z,97333.34
2022-07-28T21:05:39.220Z,97321.44
2022-07-28T21:08:09.298Z,97327.66
2022-07-28T21:10:42.735Z,97333.81
2022-07-28T21:13:09.351Z,97330.44
2022-07-28T21:15:36.107Z,97330.22
2022-07-28T21:18:03.012Z,97332.31
2022-07-28T21:20:30.013Z,97337.78
2022-07-28T21:22:56.721Z,97339.22
2022-07-28T21:25:23.449Z,97342.66
2022-07-28T21:28:08.803Z,97342.44
2022-07-28T21:30:35.481Z,97346.59
2022-07-28T21:33:02.175Z,97357.84
2022-07-28T21:35:29.498Z,97348.44
2022-07-28T21:37:56.356Z,97356.78
2022-07-28T21:40:23.202Z,97351.22
2022-07-28T21:42:49.977Z,97349.25
2022-07-28T21:45:16.836Z,97347.09
2022-07-28T21:47:43.615Z,97350.53
2022-07-28T21:50:10.908Z,97355.38
2022-07-28T21:52:38.646Z,97354.66
2022-07-28T21:55:07.114Z,97349.03
2022-07-28T21:57:34.630Z,97351.69
2022-07-28T22:00:02.211Z,97351.81
2022-07-28T22:02:28.877Z,97358.78
2022-07-28T22:04:55.894Z,97358.88
2022-07-28T22:07:22.607Z,97356.88
2022-07-28T22:09:49.243Z,97359.44
2022-07-28T22:12:15.874Z,97367.66
2022-07-28T22:14:42.630Z,97380.91
2022-07-28T22:17:09.447Z,97387.03
2022-07-28T22:19:37.079Z,97385.63
2022-07-28T22:22:04.016Z,97393.34
2022-07-28T22:24:30.716Z,97391.91
2022-07-28T22:26:57.657Z,97387.00
2022-07-28T22:29:25.028Z,97389.78
2022-07-28T22:31:54.788Z,97392.56
2022-07-28T22:34:25.877Z,97397.47
2022-07-28T22:36:52.795Z,97402.31
2022-07-28T22:39:19.719Z,97400.25
2022-07-28T22:41:47.959Z,97396.03
2022-07-28T22:44:15.220Z,97397.19
2022-07-28T22:46:42.108Z,97390.22
2022-07-28T22:49:09.221Z,97396.34
2022-07-28T22:51:35.942Z,97396.34
2022-07-28T22:54:02.571Z,97405.97
2022-07-28T22:56:36.382Z,97409.44
2022-07-28T22:59:04.779Z,97400.47
2022-07-28T23:01:31.583Z,97412.38
2022-07-28T23:03:58.516Z,97408.31
2022-07-28T23:06:25.279Z,97417.94
2022-07-28T23:08:51.988Z,97416.50
2022-07-28T23:11:18.679Z,97415.22
2022-07-28T23:13:45.354Z,97421.50
2022-07-28T23:16:13.971Z,97426.34
2022-07-28T23:18:42.086Z,97426.41
2022-07-28T23:21:09.049Z,97432.06
2022-07-28T23:23:35.872Z,97434.69
2022-07-28T23:26:03.535Z,97439.59
2022-07-28T23:28:30.567Z,97443.66
2022-07-28T23:30:57.675Z,97441.41
2022-07-28T23:33:55.290Z,97439.94
2022-07-28T23:36:17.025Z,97444.56
2022-07-28T23:38:53.838Z,97450.38
2022-07-28T23:41:20.511Z,97445.25
2022-07-28T23:43:47.167Z,97452.72
2022-07-28T23:46:13.849Z,97447.72
2022-07-28T23:48:40.609Z,97442.50
2022-07-28T23:51:07.347Z,97438.28
2022-07-28T23:53:37.403Z,97446.47
2022-07-28T23:56:04.482Z,97449.00
2022-07-28T23:58:31.148Z,97447.44
